Terminal Aerodrome Forecast
Issued by NWS Louisville, KY

Home | Current Version | Previous Version | Text Only | Print | Product List | Glossary On
Versions: 1 2 3 4 5 6 7 8 9 10 11 12 13 14 15 16 17 18
060
FTUS43 KLMK 281533 AAB
TAFSDF
TAF AMD
KSDF 281533Z 2816/0118 17012KT 4SM -SHRA BR VCTS BKN009CB
     FM281615 18013KT P6SM VCSH OVC011
     FM282300 19015KT P6SM OVC012
     FM010500 20017G25KT 4SM -SHRA BR VCTS OVC030CB
     FM011400 24019G27KT P6SM VCTS BKN050CB=

USA.gov is the U.S. government's official web portal to all federal, state and local government web resources and services.